• Join FlightAware (Why Join?)
  • Login
  • US Flag 
06:16PM EDT


 

Airport Tracker/Info


-or-


 

Live Flight TrackerFlight Track Log ✈ C-FXDD ✈ 19-Aug-2013 ✈ CYQR - CYAV

Flight Track Log - Related Links

Times and Time Zones

All times are in EDT time to prevent confusion due to time zone crossing. See the C-FXDD flight status page for this flight to view local times or setup timezone preferences in your user account.

Time Position Orientation Groundspeed Altitude Reporting Facility
EDT Latitude Longitude Course Direction KTS MPH feet Rate Location/Type
04:20PM 50.4000 -104.7000 270° West 80 92 2,200  Level Winnipeg Center
04:21PM 50.4000 -104.7167 270° West 100 115 3,200 600 Climbing Winnipeg Center
04:22PM 50.3833 -104.6667 118° Southeast 140 161 3,500 600 Climbing Winnipeg Center
04:23PM 50.4000 -104.6167 62° Northeast 140 161 4,400 840 Climbing Winnipeg Center
04:24PM 50.4000 -104.5333 90° East 140 161 5,200 780 Climbing Winnipeg Center
04:25PM 50.4000 -104.4833 90° East 140 161 6,000 780 Climbing Winnipeg Center
04:26PM 50.3833 -104.4333 118° Southeast 140 161 6,800 840 Climbing Winnipeg Center
04:27PM 50.4000 -104.3500 73° East 140 161 7,700 840 Climbing Winnipeg Center
04:28PM 50.4000 -104.3000 90° East 140 161 8,500 720 Climbing Winnipeg Center
04:29PM 50.3833 -104.2500 118° Southeast 140 161 9,200 660 Climbing Winnipeg Center
04:30PM 50.3833 -104.1667 90° East 150 173 9,900 660 Climbing Winnipeg Center
04:31PM 50.4000 -104.0833 73° East 160 184 10,600 600 Climbing Winnipeg Center
04:32PM 50.4000 -104.0333 90° East 160 184 11,100 240 Climbing Winnipeg Center
04:33PM 50.3833 -103.9500 107° East 190 219 11,100  Level Winnipeg Center
04:34PM 50.4000 -103.8500 75° East 190 219 11,100  Level Winnipeg Center
04:35PM 50.4000 -103.7667 90° East 190 219 11,100  Level Winnipeg Center
04:36PM 50.3833 -103.6833 107° East 190 219 11,100  Level Winnipeg Center
04:37PM 50.3833 -103.6167 90° East 190 219 11,100  Level Winnipeg Center
04:38PM 50.4000 -103.5333 73° East 190 219 11,100  Level Winnipeg Center
04:39PM 50.3833 -103.4500 107° East 190 219 11,100  Level Winnipeg Center
04:40PM 50.3833 -103.3500 90° East 190 219 11,100  Level Winnipeg Center
04:41PM 50.4000 -103.2667 73° East 190 219 11,100  Level Winnipeg Center
04:42PM 50.4000 -103.2000 90° East 190 219 11,100  Level Winnipeg Center
04:43PM 50.3833 -103.1167 107° East 190 219 11,100  Level Winnipeg Center
04:44PM 50.3833 -103.0333 90° East 190 219 11,100  Level Winnipeg Center
04:45PM 50.4000 -102.9500 73° East 190 219 11,100  Level Winnipeg Center
04:46PM 50.3833 -102.8667 107° East 190 219 11,100  Level Winnipeg Center
04:47PM 50.3833 -102.8000 90° East 190 219 11,100  Level Winnipeg Center
04:48PM 50.3833 -102.7167 90° East 190 219 11,100  Level Winnipeg Center
04:49PM 50.4000 -102.6167 75° East 190 219 11,100  Level Winnipeg Center
04:50PM 50.3833 -102.5333 107° East 190 219 11,100  Level Winnipeg Center
04:51PM 50.3833 -102.4500 90° East 190 219 11,100  Level Winnipeg Center
04:52PM 50.3833 -102.3833 90° East 200 230 11,100  Level Winnipeg Center
04:53PM 50.3833 -102.3000 90° East 190 219 11,100  Level Winnipeg Center
04:54PM 50.3833 -102.1833 90° East 190 219 11,100  Level Winnipeg Center
04:55PM 50.3833 -102.1167 90° East 190 219 11,100  Level Winnipeg Center
04:56PM 50.3667 -102.0333 107° East 190 219 11,100  Level Winnipeg Center
04:57PM 50.3667 -101.9500 90° East 200 230 11,100  Level Winnipeg Center
04:58PM 50.3833 -101.8500 75° East 200 230 11,100  Level Winnipeg Center
04:59PM 50.3833 -101.7667 90° East 190 219 11,100  Level Winnipeg Center
05:00PM 50.3667 -101.6833 107° East 200 230 11,100  Level Winnipeg Center
05:01PM 50.3667 -101.6167 90° East 200 230 11,100  Level Winnipeg Center
05:02PM 50.3500 -101.5333 107° East 200 230 11,100  Level Winnipeg Center
05:03PM 50.3667 -101.4333 75° East 200 230 11,100  Level Winnipeg Center
05:04PM 50.3667 -101.3500 90° East 200 230 11,100  Level Winnipeg Center
05:05PM 50.3500 -101.2667 107° East 200 230 11,100  Level Winnipeg Center
05:06PM 50.3500 -101.1667 90° East 200 230 11,100  Level Winnipeg Center
05:07PM 50.3500 -101.0833 90° East 200 230 11,100  Level Winnipeg Center
05:08PM 50.3667 -101.0000 73° East 200 230 11,100  Level Winnipeg Center
05:09PM 50.3500 -100.9000 105° East 200 230 11,100  Level Winnipeg Center
05:10PM 50.3500 -100.8167 90° East 200 230 11,100  Level Winnipeg Center
05:11PM 50.3500 -100.7500 90° East 200 230 11,100  Level Winnipeg Center
05:12PM 50.3333 -100.6333 103° East 200 230 11,100  Level Winnipeg Center
05:13PM 50.3500 -100.5667 69° East 200 230 11,100  Level Winnipeg Center
05:14PM 50.3500 -100.4833 90° East 200 230 11,100  Level Winnipeg Center
05:15PM 50.3500 -100.3833 90° East 200 230 11,100  Level Winnipeg Center
05:16PM 50.3333 -100.3000 107° East 200 230 11,100  Level Winnipeg Center
05:17PM 50.3333 -100.2167 90° East 200 230 11,100  Level Winnipeg Center
05:18PM 50.3167 -100.1167 105° East 200 230 11,100 -60 Level Winnipeg Center
05:19PM 50.3167 -100.0333 90° East 200 230 11,000  Descending Winnipeg Center
05:20PM 50.3333 -99.9500 73° East 200 230 11,100  Climbing Winnipeg Center
05:21PM 50.3167 -99.8500 105° East 200 230 11,100  Level Winnipeg Center
05:22PM 50.3167 -99.7667 90° East 200 230 11,100  Level Winnipeg Center
05:23PM 50.3167 -99.6833 90° East 200 230 11,100  Level Winnipeg Center
05:24PM 50.3167 -99.6167 90° East 200 230 11,100  Level Winnipeg Center
05:25PM 50.3167 -99.5000 90° East 200 230 11,100  Level Winnipeg Center
05:26PM 50.3000 -99.4333 111° Southeast 200 230 11,100  Level Winnipeg Center
05:27PM 50.3000 -99.3500 90° East 200 230 11,100  Level Winnipeg Center
05:28PM 50.3000 -99.2667 90° East 200 230 11,100  Level Winnipeg Center
05:29PM 50.3000 -99.1667 90° East 200 230 11,100  Level Winnipeg Center
05:31PM 50.3000 -99.0167 90° East 200 230 11,100  Level Winnipeg Center
05:32PM 50.2833 -98.9000 103° East 200 230 11,100  Level Winnipeg Center
05:33PM 50.2833 -98.8167 90° East 200 230 11,100  Level Winnipeg Center
05:34PM 50.2833 -98.7500 90° East 200 230 11,100  Level Winnipeg Center
05:35PM 50.2667 -98.6667 107° East 200 230 11,100  Level Winnipeg Center
05:36PM 50.2667 -98.5833 90° East 200 230 11,100  Level Winnipeg Center
05:37PM 50.2667 -98.4833 90° East 200 230 11,100  Level Winnipeg Center
05:38PM 50.2667 -98.4000 90° East 200 230 11,100  Level Winnipeg Center
05:39PM 50.2500 -98.3000 105° East 200 230 11,100 -300 Level Winnipeg Center
05:40PM 50.2500 -98.2167 90° East 200 230 10,600 -480 Descending Winnipeg Center
05:41PM 50.2667 -98.1167 75° East 210 242 10,200 -480 Descending Winnipeg Center
05:42PM 50.2500 -98.0333 107° East 210 242 9,700 -600 Descending Winnipeg Center
05:43PM 50.2500 -97.9667 90° East 210 242 9,100 -660 Descending Winnipeg Center
05:44PM 50.2500 -97.8500 90° East 210 242 8,400 -660 Descending Winnipeg Center
05:45PM 50.2333 -97.7500 105° East 210 242 7,800 -660 Descending Winnipeg Center
05:46PM 50.2333 -97.6667 90° East 210 242 7,100 -720 Descending Winnipeg Center
05:47PM 50.2333 -97.6000 90° East 200 230 6,400 -720 Descending Winnipeg Center
05:48PM 50.2333 -97.4833 90° East 190 219 5,700 -600 Descending Winnipeg Center
05:49PM 50.2333 -97.4167 90° East 190 219 5,200 -540 Descending Winnipeg Center
05:50PM 50.2333 -97.3333 90° East 180 207 4,700 -540 Descending Winnipeg Center
05:51PM 50.2167 -97.2500 107° East 180 207 4,200 -540 Descending Winnipeg Center
05:52PM 50.2000 -97.2000 117° Southeast 170 196 3,700 -540 Descending Winnipeg Center
05:53PM 50.1667 -97.1167 122° Southeast 160 184 3,200 -480 Descending Winnipeg Center
05:54PM 50.1500 -97.0667 117° Southeast 160 184 2,800 -360 Descending Winnipeg Center
05:55PM 50.1167 -97.0167 136° Southeast 140 161 2,500 -360 Descending Winnipeg Center
05:56PM 50.0833 -97.0167 180° South 110 127 2,100 -420 Descending Winnipeg Center
05:57PM 50.0667 -97.0167 180° South 100 115 1,700 -600 Descending Winnipeg Center
05:58PM 50.0500 -97.0167 180° South 70 81 1,000 -720 Descending Winnipeg Center